Tonopah, NV (89049)

01:44 PDT le 25 octobre 2014 (GMT -0700)
Tonopah | Change Station
CLOSE
Current Station
Aéroport
Location: Tonopah,
Altitude: 5427 ft
Stations météo à proximité
Avis météorologiques actifs: Wind Advisory Préavis actif: Record Report

Alt. 5427 ft 38.05 °N, 117.09 °W | Updated 48 minutes ago

Ciel dégagé
Ciel dégagé
58 ° F
Paraît 58 ° F
N
17
Vent Variable Vent de SSE

Aujourd'hui
Haut(e) -- | Bas -- ° F
--% Risque de précip.
Hier
Haut(e) -- | Bas -- ° F
Precip. -- pouce
7:07 AM 5:57 PM
Nouvelle lune, 2% visible
Pression 29.95 pouce
Visibilité 10.0 Miles terrestres
Nuages Ciel dégagé
Point de rosée 30 ° F
Humidité 35%
Précipitations 0.00 pouce
Profondeur de la couche neigeuse Non disponible.
UV 0 sur 12
Pollen 2.90 sur 12
Qualité de l'air Non disponible.
Flu Activity No Activity
METAR KTPH 250756Z AUTO 16015KT 10SM CLR 14/M01 A3013 RMK AO2 SLP141 T01441011 402500039

More Conditions Fewer Conditions

Pression 29.95 pouce
Visibilité 10.0 Miles terrestres
Nuages Ciel dégagé
Point de rosée 30 ° F
Humidité 35%
Précipitations 0.00 pouce
Profondeur de la couche neigeuse Non disponible.
UV 0 sur 12
Pollen 2.90 sur 12
Qualité de l'air Non disponible.
Flu Activity No Activity
METAR KTPH 250756Z AUTO 16015KT 10SM CLR 14/M01 A3013 RMK AO2 SLP141 T01441011 402500039

More Conditions Fewer Conditions

10-Day Weather Forecast

Almanac

Astronomie

Oct. 25, 2014 Lever Coucher
Temps réel 07:07 PDT 17:57 PDT
Crépuscule civil 06:40 PDT 18:24 PDT
Crépuscule nautique 06:09 PDT 18:55 PDT
Crépuscule astronomique 05:39 PDT 19:26 PDT
Lune 08:49 PDT 19:25 PDT
Durée de lumière visible 11h 44m
Longueur du jour
10h 50m
Tomorrow will be 2m 15s shorter.
Nouvelle lune, 2% of the Moon is Illuminated
Aujourd'hui
Nouvelle lune
Oct 30
Premier quartier
Nov 6
Pleine lune
Nov 14
Dernier quartier
Nov 22
Nouveau

Extrêmes aujourd'hui

State Highs State Lows

Community

WunderPhotos

Upload Photos

1,764,791 Photos téléchargées !

Nearby

Épaisseur de neige

Station Depth Altitude
Big Creek Summit 1 in 8700 ft
Diamond Peak 1 in 8000 ft
Lewis Peak 0 in 7400 ft
Marlette Lake 0 in 8000 ft
Berry Creek 0 in 9100 ft

Activité sismique

Ville Distance Mag. Time & Date
No recent earthquake activity has been reported nearby.
Minimum magnitude displayed is 2.5.

Températures des eaux côtières

Lieu Température
Aucun rapport de station

Stations météo à proximité